createdAt,value
2018-05-31T00:01:42.302Z,30.10
2018-05-31T00:04:09.881Z,28.70
2018-05-31T00:06:37.512Z,31.37
2018-05-31T00:09:05.337Z,27.53
2018-05-31T00:11:32.135Z,28.73
2018-05-31T00:13:59.039Z,27.70
2018-05-31T00:16:25.834Z,29.83
2018-05-31T00:18:52.627Z,25.97
2018-05-31T00:21:19.692Z,27.47
2018-05-31T00:23:46.470Z,32.47
2018-05-31T00:26:14.016Z,26.43
2018-05-31T00:28:41.004Z,26.47
2018-05-31T00:31:07.781Z,25.33
2018-05-31T00:33:34.606Z,25.77
2018-05-31T00:36:01.448Z,24.73
2018-05-31T00:38:28.236Z,25.50
2018-05-31T00:40:55.035Z,25.87
2018-05-31T00:43:21.927Z,25.87
2018-05-31T00:45:48.788Z,27.57
2018-05-31T00:48:16.341Z,30.93
2018-05-31T00:50:43.330Z,29.07
2018-05-31T00:53:10.114Z,29.83
2018-05-31T00:55:55.311Z,29.57
2018-05-31T00:58:22.146Z,30.63
2018-05-31T01:00:49.751Z,30.30
2018-05-31T01:03:16.740Z,28.83
2018-05-31T01:05:43.535Z,30.40
2018-05-31T01:08:10.645Z,31.57
2018-05-31T01:10:37.531Z,31.17
2018-05-31T01:13:04.339Z,30.93
2018-05-31T01:15:36.989Z,30.40
2018-05-31T01:18:03.845Z,33.10
2018-05-31T01:20:30.647Z,32.03
2018-05-31T01:22:57.508Z,32.93
2018-05-31T01:25:24.411Z,31.03
2018-05-31T01:27:51.164Z,28.60
2018-05-31T01:30:18.689Z,30.33
2018-05-31T01:32:45.517Z,32.60
2018-05-31T01:35:13.099Z,33.30
2018-05-31T01:37:39.892Z,29.20
2018-05-31T01:40:06.736Z,32.30
2018-05-31T01:42:33.541Z,28.87
2018-05-31T01:45:00.336Z,29.23
2018-05-31T01:47:28.363Z,30.00
2018-05-31T01:49:55.904Z,28.27
2018-05-31T01:52:23.460Z,30.47
2018-05-31T01:54:50.284Z,29.77
2018-05-31T01:57:17.083Z,27.23
2018-05-31T01:59:43.932Z,28.77
2018-05-31T02:02:10.802Z,28.10
2018-05-31T02:04:37.608Z,26.07
2018-05-31T02:07:05.158Z,29.43
2018-05-31T02:09:32.267Z,29.60
2018-05-31T02:11:59.865Z,28.80
2018-05-31T02:14:26.661Z,30.80
2018-05-31T02:16:53.623Z,30.40
2018-05-31T02:19:20.464Z,34.03
2018-05-31T02:21:47.256Z,34.57
2018-05-31T02:24:14.143Z,34.23
2018-05-31T02:26:40.936Z,37.20
2018-05-31T02:29:08.476Z,35.60
2018-05-31T02:31:35.308Z,33.63
2018-05-31T02:34:02.124Z,31.57
2018-05-31T02:36:28.967Z,31.13
2018-05-31T02:38:55.840Z,32.37
2018-05-31T02:41:22.652Z,35.37
2018-05-31T02:43:49.463Z,32.03
2018-05-31T02:46:16.416Z,34.60
2018-05-31T02:48:43.275Z,31.20
2018-05-31T02:51:10.117Z,29.43
2018-05-31T02:53:36.949Z,31.97
2018-05-31T02:56:03.781Z,29.53
2018-05-31T02:58:31.315Z,29.63
2018-05-31T03:00:58.924Z,32.07
2018-05-31T03:03:25.840Z,32.17
2018-05-31T03:05:52.630Z,31.23
2018-05-31T03:08:19.464Z,32.97
2018-05-31T03:10:46.320Z,31.37
2018-05-31T03:13:13.915Z,32.77
2018-05-31T03:15:40.699Z,32.60
2018-05-31T03:18:07.549Z,32.07
2018-05-31T03:20:34.372Z,32.17
2018-05-31T03:23:01.907Z,32.17
2018-05-31T03:25:28.794Z,32.63
2018-05-31T03:27:55.645Z,30.03
2018-05-31T03:30:22.475Z,30.50
2018-05-31T03:32:50.050Z,33.33
2018-05-31T03:35:16.862Z,30.93
2018-05-31T03:37:43.892Z,30.07
2018-05-31T03:40:10.676Z,32.60
2018-05-31T03:42:38.212Z,30.90
2018-05-31T03:45:05.172Z,30.83
2018-05-31T03:47:31.977Z,30.37
2018-05-31T03:49:59.560Z,34.57
2018-05-31T03:52:26.413Z,33.20
2018-05-31T03:54:53.977Z,33.03
2018-05-31T03:57:21.520Z,32.40
2018-05-31T03:59:48.491Z,30.70
2018-05-31T04:02:15.322Z,29.73
2018-05-31T04:04:42.338Z,32.90
2018-05-31T04:07:09.168Z,31.40
2018-05-31T04:09:37.578Z,29.50
2018-05-31T04:12:04.375Z,32.27
2018-05-31T04:14:31.269Z,29.43
2018-05-31T04:16:58.054Z,30.83
2018-05-31T04:19:24.891Z,30.03
2018-05-31T04:21:51.760Z,31.03
2018-05-31T04:24:18.616Z,30.40
2018-05-31T04:26:45.616Z,30.30
2018-05-31T04:29:13.189Z,38.97
2018-05-31T04:31:40.035Z,36.33
2018-05-31T04:34:06.870Z,34.07
2018-05-31T04:36:33.708Z,35.63
2018-05-31T04:39:00.570Z,34.37
2018-05-31T04:41:27.377Z,31.90
2018-05-31T04:43:54.202Z,32.23
2018-05-31T04:46:21.754Z,30.80
2018-05-31T04:48:48.560Z,30.70
2018-05-31T04:51:15.469Z,30.23
2018-05-31T04:53:42.280Z,31.40
2018-05-31T04:56:09.288Z,25.57
2018-05-31T04:58:36.859Z,26.00
2018-05-31T05:01:03.648Z,28.20
2018-05-31T05:03:30.512Z,27.17
2018-05-31T05:05:57.344Z,23.93
2018-05-31T05:08:24.144Z,25.13
2018-05-31T05:10:50.943Z,26.93
2018-05-31T05:13:17.772Z,26.73
2018-05-31T05:15:45.424Z,27.60
2018-05-31T05:18:12.223Z,26.03
2018-05-31T05:20:39.057Z,25.73
2018-05-31T05:23:06.587Z,26.87
2018-05-31T05:25:33.373Z,24.77
2018-05-31T05:28:00.268Z,26.27
2018-05-31T05:30:27.835Z,23.90
2018-05-31T05:32:54.620Z,24.20
2018-05-31T05:35:21.569Z,22.80
2018-05-31T05:37:48.411Z,24.23
2018-05-31T05:40:15.287Z,23.37
2018-05-31T05:42:42.240Z,22.80
2018-05-31T05:45:15.773Z,24.80
2018-05-31T05:47:42.611Z,24.67
2018-05-31T05:50:09.441Z,23.23
2018-05-31T05:52:37.017Z,20.30
2018-05-31T05:55:04.029Z,19.93
2018-05-31T05:57:30.840Z,19.87
2018-05-31T05:59:57.636Z,19.97
2018-05-31T06:02:24.472Z,21.17
2018-05-31T06:04:52.050Z,21.43
2018-05-31T06:07:18.836Z,21.93
2018-05-31T06:09:45.661Z,19.87
2018-05-31T06:12:12.459Z,20.10
2018-05-31T06:14:39.258Z,19.17
2018-05-31T06:17:06.236Z,18.73
2018-05-31T06:19:33.016Z,18.17
2018-05-31T06:21:59.857Z,18.97
2018-05-31T06:24:26.681Z,18.17
2018-05-31T06:26:53.496Z,17.80
2018-05-31T06:29:20.444Z,18.97
2018-05-31T06:31:47.287Z,17.33
2018-05-31T06:34:14.091Z,17.83
2018-05-31T06:36:40.871Z,18.43
2018-05-31T06:39:07.721Z,15.87
2018-05-31T06:41:35.582Z,16.23
2018-05-31T06:44:02.432Z,15.60
2018-05-31T06:46:29.259Z,15.37
2018-05-31T06:48:56.780Z,16.70
2018-05-31T06:51:23.817Z,14.00
2018-05-31T06:53:51.515Z,15.83
2018-05-31T06:56:19.032Z,15.23
2018-05-31T06:58:45.809Z,16.40
2018-05-31T07:01:12.771Z,17.20
2018-05-31T07:03:40.284Z,15.67
2018-05-31T07:06:07.860Z,14.40
2018-05-31T07:08:34.712Z,17.83
2018-05-31T07:11:01.484Z,18.30
2018-05-31T07:13:29.003Z,17.43
2018-05-31T07:15:56.053Z,16.03
2018-05-31T07:18:22.851Z,16.53
2018-05-31T07:20:49.637Z,15.40
2018-05-31T07:23:16.460Z,15.90
2018-05-31T07:25:43.252Z,16.77
2018-05-31T07:28:10.104Z,17.30
2018-05-31T07:30:37.006Z,17.67
2018-05-31T07:33:03.802Z,19.97
2018-05-31T07:35:30.624Z,17.93
2018-05-31T07:37:57.407Z,17.43
2018-05-31T07:40:24.179Z,15.57
2018-05-31T07:42:51.096Z,15.60
2018-05-31T07:45:24.028Z,16.50
2018-05-31T07:47:50.864Z,16.23
2018-05-31T07:50:17.692Z,15.43
2018-05-31T07:52:44.469Z,14.10
2018-05-31T07:55:11.347Z,13.47
2018-05-31T07:57:38.163Z,14.13
2018-05-31T08:00:04.988Z,16.70
2018-05-31T08:02:31.807Z,14.07
2018-05-31T08:04:58.636Z,15.30
2018-05-31T08:07:25.460Z,16.23
2018-05-31T08:09:52.976Z,15.83
2018-05-31T08:12:19.788Z,15.43
2018-05-31T08:14:46.558Z,15.83
2018-05-31T08:17:17.692Z,13.47
2018-05-31T08:19:45.304Z,14.67
2018-05-31T08:22:12.833Z,14.07
2018-05-31T08:24:39.673Z,16.00
2018-05-31T08:27:06.452Z,14.30
2018-05-31T08:29:33.983Z,15.73
2018-05-31T08:32:00.857Z,14.67
2018-05-31T08:34:28.676Z,16.60
2018-05-31T08:36:55.522Z,15.43
2018-05-31T08:39:22.386Z,13.97
2018-05-31T08:41:49.155Z,13.00
2018-05-31T08:44:16.034Z,12.70
2018-05-31T08:46:42.880Z,14.83
2018-05-31T08:49:09.684Z,13.67
2018-05-31T08:51:37.276Z,13.60
2018-05-31T08:54:04.087Z,13.50
2018-05-31T08:56:31.740Z,13.30
2018-05-31T08:58:59.262Z,13.17
2018-05-31T09:01:26.072Z,13.87
2018-05-31T09:03:52.840Z,13.93
2018-05-31T09:06:19.657Z,13.90
2018-05-31T09:08:46.522Z,13.00
2018-05-31T09:11:13.357Z,13.10
2018-05-31T09:13:40.265Z,12.73
2018-05-31T09:16:07.084Z,14.10
2018-05-31T09:18:33.873Z,11.67
2018-05-31T09:21:01.074Z,13.30
2018-05-31T09:23:27.851Z,10.97
2018-05-31T09:25:55.380Z,13.50
2018-05-31T09:28:22.213Z,12.67
2018-05-31T09:30:49.034Z,13.87
2018-05-31T09:33:15.864Z,13.37
2018-05-31T09:35:42.675Z,12.73
2018-05-31T09:38:09.486Z,15.07
2018-05-31T09:40:36.360Z,13.27
2018-05-31T09:43:03.180Z,14.23
2018-05-31T09:45:35.936Z,14.27
2018-05-31T09:48:03.012Z,13.50
2018-05-31T09:50:29.792Z,13.37
2018-05-31T09:52:57.328Z,13.73
2018-05-31T09:55:24.145Z,14.37
2018-05-31T09:57:51.708Z,16.20
2018-05-31T10:00:18.531Z,15.20
2018-05-31T10:02:45.309Z,12.47
2018-05-31T10:05:12.137Z,12.27
2018-05-31T10:07:38.947Z,12.53
2018-05-31T10:10:05.788Z,15.17
2018-05-31T10:12:32.602Z,13.30
2018-05-31T10:14:59.369Z,14.30
2018-05-31T10:17:26.915Z,14.67
2018-05-31T10:19:54.424Z,13.40
2018-05-31T10:22:21.260Z,14.70
2018-05-31T10:24:48.088Z,13.67
2018-05-31T10:27:14.851Z,13.63
2018-05-31T10:29:41.673Z,13.23
2018-05-31T10:32:08.459Z,13.17
2018-05-31T10:34:35.355Z,13.03
2018-05-31T10:37:02.190Z,12.80
2018-05-31T10:39:29.776Z,12.57
2018-05-31T10:41:56.769Z,12.53
2018-05-31T10:44:23.543Z,11.37
2018-05-31T10:46:50.363Z,11.83
2018-05-31T10:49:17.159Z,11.97
2018-05-31T10:51:43.911Z,12.53
2018-05-31T10:54:10.752Z,13.47
2018-05-31T10:56:37.522Z,12.07
2018-05-31T10:59:04.532Z,11.97
2018-05-31T11:01:31.303Z,11.87
2018-05-31T11:03:58.072Z,11.70
2018-05-31T11:06:24.889Z,11.77
2018-05-31T11:08:51.651Z,11.93
2018-05-31T11:11:18.638Z,12.40
2018-05-31T11:13:45.391Z,12.57
2018-05-31T11:16:12.189Z,13.73
2018-05-31T11:18:39.014Z,14.00
2018-05-31T11:21:05.805Z,12.80
2018-05-31T11:23:32.712Z,13.30
2018-05-31T11:25:59.491Z,12.70
2018-05-31T11:28:26.264Z,13.53
2018-05-31T11:30:53.098Z,12.83
2018-05-31T11:33:19.873Z,12.93
2018-05-31T11:35:46.760Z,12.50
2018-05-31T11:38:13.599Z,12.47
2018-05-31T11:40:41.169Z,11.97
2018-05-31T11:43:07.996Z,12.40
2018-05-31T11:45:40.819Z,11.47
2018-05-31T11:48:08.535Z,12.27
2018-05-31T11:50:35.311Z,10.83
2018-05-31T11:53:02.086Z,11.80
2018-05-31T11:55:28.934Z,12.03
2018-05-31T11:57:55.713Z,11.03
2018-05-31T12:00:22.620Z,11.50
2018-05-31T12:02:49.419Z,10.50
2018-05-31T12:05:16.215Z,12.40
2018-05-31T12:07:43.062Z,9.67
2018-05-31T12:10:09.845Z,9.87
2018-05-31T12:12:36.732Z,9.90
2018-05-31T12:15:03.609Z,9.37
2018-05-31T12:17:30.449Z,10.57
2018-05-31T12:19:57.972Z,10.50
2018-05-31T12:22:24.812Z,10.33
2018-05-31T12:24:52.383Z,7.97
2018-05-31T12:27:19.166Z,8.27
2018-05-31T12:29:46.735Z,9.13
2018-05-31T12:32:14.270Z,8.63
2018-05-31T12:34:41.119Z,10.17
2018-05-31T12:37:07.966Z,10.10
2018-05-31T12:39:34.784Z,10.83
2018-05-31T12:42:01.611Z,14.10
2018-05-31T12:44:28.387Z,9.93
2018-05-31T12:46:55.342Z,10.23
2018-05-31T12:49:22.187Z,10.80
2018-05-31T12:51:48.988Z,9.87
2018-05-31T12:54:15.815Z,9.67
2018-05-31T12:56:42.636Z,9.27
2018-05-31T12:59:10.156Z,9.50
2018-05-31T13:01:37.020Z,8.50
2018-05-31T13:04:03.804Z,9.17
2018-05-31T13:06:30.595Z,11.43
2018-05-31T13:08:57.416Z,11.57
2018-05-31T13:11:24.200Z,10.37
2018-05-31T13:13:51.068Z,10.83
2018-05-31T13:16:18.007Z,11.20
2018-05-31T13:18:45.563Z,10.37
2018-05-31T13:21:13.109Z,9.80
2018-05-31T13:23:39.939Z,10.67
2018-05-31T13:26:06.853Z,9.50
2018-05-31T13:28:33.855Z,9.73
2018-05-31T13:31:01.396Z,10.40
2018-05-31T13:33:28.236Z,9.97
2018-05-31T13:35:55.071Z,10.77
2018-05-31T13:38:21.881Z,9.43
2018-05-31T13:40:48.750Z,9.77
2018-05-31T13:43:15.528Z,9.70
2018-05-31T13:45:43.147Z,10.23
2018-05-31T13:48:09.965Z,9.20
2018-05-31T13:50:36.844Z,9.13
2018-05-31T13:53:03.632Z,9.70
2018-05-31T13:55:31.339Z,9.13
2018-05-31T13:57:58.117Z,9.60
2018-05-31T14:00:24.904Z,9.30
2018-05-31T14:02:51.780Z,9.30
2018-05-31T14:05:18.587Z,8.80
2018-05-31T14:07:45.399Z,7.73
2018-05-31T14:10:12.909Z,7.30
2018-05-31T14:12:39.678Z,8.30
2018-05-31T14:15:12.725Z,7.50
2018-05-31T14:17:39.499Z,7.47
2018-05-31T14:20:06.320Z,7.70
2018-05-31T14:22:33.156Z,7.97
2018-05-31T14:25:00.115Z,8.10
2018-05-31T14:27:27.702Z,9.07
2018-05-31T14:29:54.483Z,9.23
2018-05-31T14:32:22.192Z,8.83
2018-05-31T14:34:48.975Z,10.63
2018-05-31T14:37:16.548Z,8.00
2018-05-31T14:39:43.454Z,8.60
2018-05-31T14:42:10.344Z,8.23
2018-05-31T14:44:37.183Z,6.23
2018-05-31T14:47:04.707Z,6.07
2018-05-31T14:49:31.767Z,7.90
2018-05-31T14:51:58.622Z,6.57
2018-05-31T14:54:26.150Z,7.40
2018-05-31T14:56:53.003Z,7.50
2018-05-31T14:59:19.808Z,7.40
2018-05-31T15:01:46.640Z,7.53
2018-05-31T15:04:13.502Z,7.00
2018-05-31T15:06:40.312Z,8.20
2018-05-31T15:09:08.235Z,9.90
2018-05-31T15:11:35.010Z,8.80
2018-05-31T15:14:02.599Z,7.93
2018-05-31T15:16:29.455Z,7.90
2018-05-31T15:18:56.336Z,7.53
2018-05-31T15:21:23.160Z,7.97
2018-05-31T15:23:49.940Z,8.60
2018-05-31T15:26:16.756Z,6.90
2018-05-31T15:28:44.379Z,7.87
2018-05-31T15:31:11.149Z,6.80
2018-05-31T15:33:37.969Z,7.73
2018-05-31T15:36:04.922Z,8.30
2018-05-31T15:38:32.435Z,6.80
2018-05-31T15:40:59.313Z,7.83
2018-05-31T15:43:27.239Z,7.93
2018-05-31T15:45:54.009Z,7.30
2018-05-31T15:48:21.221Z,7.23
2018-05-31T15:50:47.996Z,8.13
2018-05-31T15:53:14.816Z,8.47
2018-05-31T15:55:41.636Z,14.50
2018-05-31T15:58:08.404Z,8.70
2018-05-31T16:00:35.243Z,10.57
2018-05-31T16:03:02.032Z,8.47
2018-05-31T16:05:29.278Z,14.13
2018-05-31T16:07:56.821Z,8.27
2018-05-31T16:10:23.613Z,11.13
2018-05-31T16:12:50.473Z,10.73
2018-05-31T16:15:23.573Z,10.63
2018-05-31T16:17:51.203Z,15.27
2018-05-31T16:20:17.981Z,9.77
2018-05-31T16:22:44.763Z,11.57
2018-05-31T16:25:12.348Z,11.07
2018-05-31T16:27:39.212Z,14.13
2018-05-31T16:30:06.856Z,10.60
2018-05-31T16:32:33.637Z,10.33
2018-05-31T16:35:00.452Z,9.50
2018-05-31T16:37:27.621Z,8.40
2018-05-31T16:39:54.400Z,29.10
2018-05-31T16:42:21.229Z,69.07
2018-05-31T16:44:48.625Z,17.17
2018-05-31T16:47:16.133Z,19.10
2018-05-31T16:49:42.915Z,14.77
2018-05-31T16:52:10.478Z,15.67
2018-05-31T16:54:37.316Z,15.47
2018-05-31T16:57:04.914Z,6.43
2018-05-31T16:59:31.703Z,23.30
2018-05-31T17:01:58.604Z,21.77
2018-05-31T17:04:26.119Z,8.83
2018-05-31T17:06:53.747Z,6.27
2018-05-31T17:09:20.566Z,6.83
2018-05-31T17:11:47.340Z,5.27
2018-05-31T17:14:20.208Z,6.70
2018-05-31T17:16:46.989Z,5.60
2018-05-31T17:19:13.824Z,7.17
2018-05-31T17:21:40.631Z,16.17
2018-05-31T17:24:07.433Z,48.63
2018-05-31T17:26:34.957Z,29.97
2018-05-31T17:29:02.542Z,10.97
2018-05-31T17:31:29.372Z,12.30
2018-05-31T17:33:56.203Z,7.10
2018-05-31T17:36:22.832Z,8.73
2018-05-31T17:38:51.078Z,9.10
2018-05-31T17:41:17.875Z,7.63
2018-05-31T17:43:44.704Z,6.00
2018-05-31T17:46:11.592Z,5.87
2018-05-31T17:48:39.115Z,6.43
2018-05-31T17:51:05.956Z,58.40
2018-05-31T17:53:32.739Z,20.80
2018-05-31T17:55:59.940Z,15.13
2018-05-31T17:58:26.768Z,36.07
2018-05-31T18:00:53.553Z,26.90
2018-05-31T18:03:21.147Z,16.67
2018-05-31T18:05:47.943Z,10.27
2018-05-31T18:08:14.791Z,10.27
2018-05-31T18:10:41.611Z,8.87
2018-05-31T18:13:08.500Z,9.87
2018-05-31T18:15:35.324Z,11.40
2018-05-31T18:18:02.095Z,9.63
2018-05-31T18:20:28.930Z,10.83
2018-05-31T18:22:56.546Z,12.77
2018-05-31T18:25:23.334Z,14.87
2018-05-31T18:27:50.901Z,11.97
2018-05-31T18:30:18.426Z,13.60
2018-05-31T18:32:45.302Z,10.63
2018-05-31T18:35:13.008Z,12.47
2018-05-31T18:37:39.808Z,9.30
2018-05-31T18:40:06.591Z,10.73
2018-05-31T18:42:34.176Z,13.30
2018-05-31T18:45:01.027Z,10.30
2018-05-31T18:47:27.868Z,9.53
2018-05-31T18:49:54.669Z,8.43
2018-05-31T18:52:21.436Z,13.43
2018-05-31T18:54:48.214Z,9.37
2018-05-31T18:57:15.104Z,8.93
2018-05-31T18:59:41.943Z,11.07
2018-05-31T19:02:08.728Z,9.27
2018-05-31T19:04:35.508Z,8.90
2018-05-31T19:07:03.124Z,9.70
2018-05-31T19:09:33.756Z,8.10
2018-05-31T19:12:00.570Z,8.50
2018-05-31T19:14:27.423Z,12.57
2018-05-31T19:16:54.259Z,8.83
2018-05-31T19:19:27.121Z,9.83
2018-05-31T19:21:54.082Z,13.63
2018-05-31T19:24:26.876Z,10.10
2018-05-31T19:26:53.723Z,9.40
2018-05-31T19:29:21.244Z,19.37
2018-05-31T19:31:48.840Z,13.63
2018-05-31T19:34:15.723Z,11.47
2018-05-31T19:36:48.688Z,10.20
2018-05-31T19:39:15.511Z,12.17
2018-05-31T19:41:42.284Z,13.60
2018-05-31T19:44:15.105Z,11.10
2018-05-31T19:46:41.965Z,12.37
2018-05-31T19:49:09.615Z,13.87
2018-05-31T19:51:42.676Z,15.53
2018-05-31T19:54:09.593Z,12.93
2018-05-31T19:56:36.417Z,15.37
2018-05-31T19:59:09.384Z,12.37
2018-05-31T20:01:42.959Z,13.07
2018-05-31T20:04:09.913Z,13.77
2018-05-31T20:06:36.792Z,13.97
2018-05-31T20:09:04.177Z,14.30
2018-05-31T20:11:31.227Z,14.47
2018-05-31T20:13:58.283Z,14.00
2018-05-31T20:16:25.234Z,14.00
2018-05-31T20:18:52.198Z,14.97
2018-05-31T20:21:19.264Z,14.40
2018-05-31T20:23:47.439Z,12.33
2018-05-31T20:26:15.725Z,12.90
2018-05-31T20:28:42.817Z,14.43
2018-05-31T20:31:09.865Z,12.60
2018-05-31T20:33:37.224Z,13.80
2018-05-31T20:36:04.874Z,13.30
2018-05-31T20:38:31.909Z,13.37
2018-05-31T20:40:59.838Z,11.97
2018-05-31T20:43:26.637Z,13.53
2018-05-31T20:45:54.486Z,13.57
2018-05-31T20:48:22.058Z,13.77
2018-05-31T20:50:48.892Z,13.77
2018-05-31T20:53:16.409Z,14.70
2018-05-31T20:55:43.236Z,14.37
2018-05-31T20:58:10.074Z,14.00
2018-05-31T21:00:36.893Z,15.87
2018-05-31T21:03:03.713Z,17.00
2018-05-31T21:05:31.567Z,15.67
2018-05-31T21:07:58.367Z,13.73
2018-05-31T21:10:25.946Z,16.13
2018-05-31T21:12:52.771Z,15.03
2018-05-31T21:15:19.562Z,17.07
2018-05-31T21:17:46.367Z,13.97
2018-05-31T21:20:13.142Z,14.77
2018-05-31T21:22:40.864Z,16.60
2018-05-31T21:25:07.651Z,16.57
2018-05-31T21:27:34.436Z,16.00
2018-05-31T21:30:01.269Z,15.10
2018-05-31T21:32:28.048Z,15.33
2018-05-31T21:34:55.599Z,15.80
2018-05-31T21:37:22.411Z,15.47
2018-05-31T21:39:49.979Z,14.33
2018-05-31T21:42:16.751Z,14.57
2018-05-31T21:44:43.514Z,15.57
2018-05-31T21:47:10.421Z,15.23
2018-05-31T21:49:37.195Z,13.83
2018-05-31T21:52:04.138Z,14.23
2018-05-31T21:54:30.917Z,14.77
2018-05-31T21:56:58.485Z,15.87
2018-05-31T21:59:25.532Z,17.13
2018-05-31T22:01:53.108Z,16.00
2018-05-31T22:04:19.984Z,17.03
2018-05-31T22:06:46.812Z,18.40
2018-05-31T22:09:13.707Z,15.43
2018-05-31T22:11:41.260Z,16.07
2018-05-31T22:14:08.044Z,15.47
2018-05-31T22:16:34.904Z,16.10
2018-05-31T22:19:01.677Z,15.13
2018-05-31T22:21:28.520Z,17.03
2018-05-31T22:23:57.062Z,14.63
2018-05-31T22:26:23.893Z,15.20
2018-05-31T22:28:51.400Z,15.47
2018-05-31T22:31:18.242Z,15.57
2018-05-31T22:33:45.018Z,15.67
2018-05-31T22:36:11.844Z,16.07
2018-05-31T22:38:38.664Z,16.57
2018-05-31T22:41:05.501Z,15.10
2018-05-31T22:43:32.495Z,16.23
2018-05-31T22:45:59.634Z,15.33
2018-05-31T22:48:26.471Z,15.80
2018-05-31T22:50:53.244Z,15.53
2018-05-31T22:53:20.173Z,15.30
2018-05-31T22:55:47.776Z,15.53
2018-05-31T22:58:14.681Z,15.97
2018-05-31T23:00:41.762Z,15.33
2018-05-31T23:03:08.558Z,15.43
2018-05-31T23:05:35.378Z,15.93
2018-05-31T23:08:02.148Z,14.37
2018-05-31T23:10:28.922Z,16.53
2018-05-31T23:12:55.801Z,16.03
2018-05-31T23:15:22.637Z,14.93
2018-05-31T23:17:49.658Z,15.27
2018-05-31T23:20:17.234Z,15.23
2018-05-31T23:22:44.060Z,14.83
2018-05-31T23:25:10.908Z,16.30
2018-05-31T23:27:38.475Z,16.93
2018-05-31T23:30:06.050Z,15.43
2018-05-31T23:32:32.824Z,15.30
2018-05-31T23:34:59.609Z,14.53
2018-05-31T23:37:26.468Z,15.23
2018-05-31T23:39:53.999Z,17.17
2018-05-31T23:42:20.828Z,16.60
2018-05-31T23:44:47.634Z,17.37
2018-05-31T23:47:14.464Z,16.30
2018-05-31T23:49:41.309Z,17.57
2018-05-31T23:52:08.000Z,17.27
2018-05-31T23:54:34.632Z,17.23
2018-05-31T23:57:01.304Z,17.87
2018-05-31T23:59:27.932Z,18.00
